createdAt,value
2022-07-28T00:01:49.560Z,4.47
2022-07-28T00:04:18.873Z,4.85
2022-07-28T00:06:51.308Z,4.60
2022-07-28T00:09:22.044Z,4.50
2022-07-28T00:12:14.690Z,4.10
2022-07-28T00:14:44.293Z,3.83
2022-07-28T00:17:13.975Z,4.00
2022-07-28T00:19:43.790Z,4.07
2022-07-28T00:22:12.841Z,3.65
2022-07-28T00:24:49.126Z,3.78
2022-07-28T00:27:19.923Z,4.18
2022-07-28T00:29:52.970Z,3.60
2022-07-28T00:32:23.491Z,3.80
2022-07-28T00:34:52.910Z,3.75
2022-07-28T00:37:22.283Z,3.83
2022-07-28T00:42:52.476Z,3.47
2022-07-28T00:45:22.894Z,3.80
2022-07-28T00:47:54.514Z,3.80
2022-07-28T00:50:26.144Z,3.97
2022-07-28T00:53:02.465Z,4.22
2022-07-28T00:56:03.678Z,3.58
2022-07-28T00:58:45.809Z,3.88
2022-07-28T01:01:23.263Z,3.58
2022-07-28T01:04:04.491Z,3.65
2022-07-28T01:07:01.312Z,3.40
2022-07-28T01:10:05.587Z,3.53
2022-07-28T01:13:02.973Z,3.47
2022-07-28T01:15:44.719Z,3.47
2022-07-28T01:18:26.787Z,3.20
2022-07-28T01:21:20.732Z,4.13
2022-07-28T01:24:25.112Z,3.35
2022-07-28T01:27:16.943Z,3.20
2022-07-28T01:30:11.389Z,3.60
2022-07-28T01:32:49.461Z,3.28
2022-07-28T01:35:30.727Z,3.17
2022-07-28T01:38:06.494Z,2.97
2022-07-28T01:40:37.854Z,3.15
2022-07-28T01:43:15.569Z,3.80
2022-07-28T01:48:24.982Z,3.10
2022-07-28T01:50:57.931Z,3.85
2022-07-28T01:53:37.803Z,3.70
2022-07-28T01:56:07.688Z,3.50
2022-07-28T01:58:41.786Z,3.70
2022-07-28T02:01:13.633Z,3.85
2022-07-28T02:03:57.507Z,4.53
2022-07-28T02:09:16.969Z,4.22
2022-07-28T02:11:47.742Z,4.25
2022-07-28T02:14:25.568Z,4.13
2022-07-28T02:17:04.843Z,4.57
2022-07-28T02:22:27.914Z,4.45
2022-07-28T02:24:59.012Z,4.30
2022-07-28T02:27:44.043Z,4.13
2022-07-28T02:30:31.091Z,4.15
2022-07-28T02:33:15.594Z,4.05
2022-07-28T02:36:03.324Z,4.25
2022-07-28T02:38:43.038Z,4.95
2022-07-28T02:41:35.895Z,4.28
2022-07-28T02:44:13.233Z,4.57
2022-07-28T02:46:49.697Z,3.97
2022-07-28T02:52:09.812Z,4.72
2022-07-28T02:54:41.438Z,4.53
2022-07-28T02:57:14.888Z,4.80
2022-07-28T02:59:51.360Z,4.60
2022-07-28T03:02:26.361Z,4.38
2022-07-28T03:04:59.403Z,4.40
2022-07-28T03:07:32.936Z,4.75
2022-07-28T03:10:04.394Z,4.72
2022-07-28T03:12:33.363Z,5.20
2022-07-28T03:15:09.495Z,5.40
2022-07-28T03:17:38.131Z,4.65
2022-07-28T03:20:09.877Z,4.53
2022-07-28T03:22:40.529Z,6.35
2022-07-28T03:25:19.874Z,5.07
2022-07-28T03:28:06.819Z,5.20
2022-07-28T03:30:41.995Z,5.00
2022-07-28T03:33:16.825Z,4.85
2022-07-28T03:35:50.849Z,5.03
2022-07-28T03:38:26.413Z,4.28
2022-07-28T03:40:57.150Z,4.38
2022-07-28T03:43:26.919Z,4.07
2022-07-28T03:45:56.564Z,4.43
2022-07-28T03:48:31.630Z,4.30
2022-07-28T03:51:07.723Z,4.47
2022-07-28T03:53:38.877Z,4.70
2022-07-28T03:56:06.797Z,4.65
2022-07-28T03:58:35.319Z,4.50
2022-07-28T04:01:12.850Z,4.55
2022-07-28T04:03:43.791Z,4.10
2022-07-28T04:06:15.745Z,4.70
2022-07-28T04:08:45.690Z,4.30
2022-07-28T04:11:15.696Z,4.60
2022-07-28T04:13:46.552Z,4.10
2022-07-28T04:16:16.004Z,4.80
2022-07-28T04:21:23.202Z,4.00
2022-07-28T04:23:58.456Z,4.35
2022-07-28T04:26:32.822Z,4.22
2022-07-28T04:29:03.220Z,4.35
2022-07-28T04:31:32.825Z,5.38
2022-07-28T04:34:04.776Z,4.50
2022-07-28T04:36:37.497Z,4.38
2022-07-28T04:39:12.609Z,3.92
2022-07-28T04:41:44.951Z,3.95
2022-07-28T04:44:15.363Z,3.88
2022-07-28T04:46:44.765Z,4.38
2022-07-28T04:49:21.729Z,3.90
2022-07-28T04:52:00.026Z,3.63
2022-07-28T04:54:29.474Z,5.18
2022-07-28T04:57:00.638Z,3.83
2022-07-28T04:59:35.792Z,4.63
2022-07-28T05:02:06.514Z,7.22
2022-07-28T05:04:42.137Z,3.95
2022-07-28T05:07:22.176Z,4.13
2022-07-28T05:10:00.004Z,4.18
2022-07-28T05:12:30.447Z,2.80
2022-07-28T05:15:00.918Z,3.47
2022-07-28T05:17:30.676Z,4.10
2022-07-28T05:20:00.259Z,3.10
2022-07-28T05:22:49.552Z,3.90
2022-07-28T05:25:22.008Z,3.53
2022-07-28T05:27:51.707Z,3.10
2022-07-28T05:30:48.426Z,3.22
2022-07-28T05:33:32.105Z,2.70
2022-07-28T05:36:02.069Z,2.65
2022-07-28T05:38:37.217Z,3.22
2022-07-28T05:41:10.525Z,3.53
2022-07-28T05:43:42.542Z,2.90
2022-07-28T05:46:20.632Z,2.42
2022-07-28T05:48:57.616Z,2.60
2022-07-28T05:51:59.354Z,2.65
2022-07-28T05:54:33.494Z,3.10
2022-07-28T05:57:06.678Z,2.88
2022-07-28T05:59:37.157Z,2.58
2022-07-28T06:02:07.067Z,2.72
2022-07-28T06:04:48.968Z,3.05
2022-07-28T06:07:43.698Z,2.50
2022-07-28T06:10:58.244Z,2.92
2022-07-28T06:13:32.259Z,3.05
2022-07-28T06:16:13.122Z,2.53
2022-07-28T06:18:52.395Z,3.78
2022-07-28T06:21:27.521Z,2.22
2022-07-28T06:23:59.722Z,2.47
2022-07-28T06:26:45.473Z,2.35
2022-07-28T06:29:14.418Z,3.13
2022-07-28T06:31:43.124Z,2.47
2022-07-28T06:34:13.757Z,2.28
2022-07-28T06:36:49.838Z,2.35
2022-07-28T06:39:30.917Z,2.15
2022-07-28T06:41:59.989Z,2.10
2022-07-28T06:44:54.906Z,2.47
2022-07-28T06:47:26.531Z,2.50
2022-07-28T06:49:55.679Z,1.83
2022-07-28T06:52:28.534Z,1.90
2022-07-28T06:55:10.909Z,1.90
2022-07-28T06:57:54.148Z,2.15
2022-07-28T07:00:37.561Z,1.88
2022-07-28T07:03:31.647Z,1.90
2022-07-28T07:06:05.564Z,1.90
2022-07-28T07:11:54.937Z,2.17
2022-07-28T07:14:33.371Z,2.20
2022-07-28T07:17:17.323Z,2.15
2022-07-28T07:19:49.434Z,1.90
2022-07-28T07:22:24.277Z,1.50
2022-07-28T07:25:01.293Z,1.90
2022-07-28T07:27:43.977Z,2.72
2022-07-28T07:31:05.655Z,3.50
2022-07-28T07:33:34.570Z,2.00
2022-07-28T07:39:36.931Z,2.38
2022-07-28T07:42:08.896Z,2.53
2022-07-28T07:44:55.196Z,2.00
2022-07-28T07:47:37.502Z,2.00
2022-07-28T07:50:23.586Z,1.58
2022-07-28T07:52:53.534Z,1.80
2022-07-28T07:55:36.282Z,1.48
2022-07-28T07:58:14.525Z,1.45
2022-07-28T08:00:58.876Z,1.52
2022-07-28T08:03:33.414Z,1.67
2022-07-28T08:06:07.319Z,1.52
2022-07-28T08:08:57.956Z,2.08
2022-07-28T08:11:27.288Z,1.20
2022-07-28T08:14:07.823Z,2.20
2022-07-28T08:16:45.361Z,1.77
2022-07-28T08:19:23.665Z,1.52
2022-07-28T08:22:07.860Z,1.50
2022-07-28T08:24:59.482Z,1.52
2022-07-28T08:27:38.247Z,1.40
2022-07-28T08:30:22.263Z,1.52
2022-07-28T08:32:57.356Z,1.30
2022-07-28T08:35:34.239Z,1.20
2022-07-28T08:38:22.976Z,1.35
2022-07-28T08:40:57.802Z,1.23
2022-07-28T08:43:55.469Z,1.67
2022-07-28T08:46:27.307Z,3.95
2022-07-28T08:49:17.593Z,1.65
2022-07-28T08:52:01.933Z,2.10
2022-07-28T08:54:36.191Z,2.10
2022-07-28T08:57:14.138Z,3.35
2022-07-28T08:59:47.080Z,1.30
2022-07-28T09:02:17.534Z,2.38
2022-07-28T09:05:02.787Z,1.88
2022-07-28T09:07:44.620Z,2.33
2022-07-28T09:10:38.715Z,2.03
2022-07-28T09:13:13.423Z,1.42
2022-07-28T09:15:48.791Z,1.60
2022-07-28T09:18:32.635Z,1.30
2022-07-28T09:21:18.022Z,1.50
2022-07-28T09:24:16.356Z,1.23
2022-07-28T09:27:01.706Z,1.08
2022-07-28T09:29:55.734Z,1.30
2022-07-28T09:36:19.283Z,1.48
2022-07-28T09:39:46.636Z,1.13
2022-07-28T09:42:53.010Z,1.70
2022-07-28T09:45:41.982Z,4.78
2022-07-28T09:48:15.418Z,1.70
2022-07-28T09:51:23.245Z,1.63
2022-07-28T09:53:58.237Z,1.17
2022-07-28T09:56:36.369Z,1.50
2022-07-28T09:59:05.802Z,1.95
2022-07-28T10:02:22.624Z,1.52
2022-07-28T10:05:03.519Z,1.33
2022-07-28T10:07:51.377Z,2.63
2022-07-28T10:10:29.677Z,1.38
2022-07-28T10:13:08.051Z,1.50
2022-07-28T10:16:01.762Z,1.42
2022-07-28T10:18:31.033Z,1.13
2022-07-28T10:21:10.066Z,1.40
2022-07-28T10:23:49.302Z,1.15
2022-07-28T10:26:24.583Z,1.13
2022-07-28T10:28:54.929Z,1.05
2022-07-28T10:31:48.636Z,1.25
2022-07-28T10:34:44.992Z,1.02
2022-07-28T10:37:24.327Z,0.85
2022-07-28T10:40:24.497Z,1.23
2022-07-28T10:42:58.719Z,1.45
2022-07-28T10:45:47.898Z,1.17
2022-07-28T10:48:23.838Z,1.63
2022-07-28T10:50:56.107Z,0.98
2022-07-28T10:54:26.505Z,1.92
2022-07-28T10:57:00.364Z,1.00
2022-07-28T11:00:12.778Z,1.25
2022-07-28T11:03:00.722Z,1.63
2022-07-28T11:05:44.984Z,0.93
2022-07-28T11:08:28.645Z,1.17
2022-07-28T11:11:07.411Z,1.50
2022-07-28T11:13:41.554Z,1.23
2022-07-28T11:16:46.980Z,1.00
2022-07-28T11:19:36.754Z,1.10
2022-07-28T11:22:20.960Z,0.90
2022-07-28T11:25:19.609Z,0.85
2022-07-28T11:27:51.035Z,1.30
2022-07-28T11:30:49.408Z,0.93
2022-07-28T11:33:20.614Z,0.90
2022-07-28T11:35:54.325Z,1.40
2022-07-28T11:38:23.629Z,1.15
2022-07-28T11:40:55.382Z,1.20
2022-07-28T11:46:17.912Z,1.02
2022-07-28T11:49:08.500Z,1.20
2022-07-28T11:52:06.897Z,0.95
2022-07-28T11:54:39.396Z,1.50
2022-07-28T11:57:26.360Z,1.15
2022-07-28T12:00:02.415Z,0.70
2022-07-28T12:02:45.313Z,1.05
2022-07-28T12:05:20.885Z,1.05
2022-07-28T12:10:55.921Z,2.58
2022-07-28T12:13:40.637Z,1.15
2022-07-28T12:16:11.092Z,1.23
2022-07-28T12:18:43.084Z,1.20
2022-07-28T12:21:13.228Z,1.13
2022-07-28T12:23:57.709Z,3.13
2022-07-28T12:26:54.242Z,1.45
2022-07-28T12:29:39.057Z,3.63
2022-07-28T12:32:39.201Z,2.35
2022-07-28T12:35:10.446Z,1.52
2022-07-28T12:37:44.708Z,1.33
2022-07-28T12:40:35.005Z,1.52
2022-07-28T12:43:27.991Z,0.88
2022-07-28T12:46:02.351Z,1.00
2022-07-28T12:48:54.721Z,1.40
2022-07-28T12:51:39.302Z,1.02
2022-07-28T12:54:11.079Z,1.00
2022-07-28T12:57:07.319Z,0.80
2022-07-28T12:59:39.497Z,1.60
2022-07-28T13:05:31.718Z,1.00
2022-07-28T13:10:49.731Z,1.27
2022-07-28T13:13:23.729Z,1.48
2022-07-28T13:16:16.779Z,0.95
2022-07-28T13:18:54.443Z,1.30
2022-07-28T13:21:38.731Z,0.80
2022-07-28T13:24:10.901Z,0.88
2022-07-28T13:26:44.248Z,0.98
2022-07-28T13:29:16.886Z,1.02
2022-07-28T13:31:47.002Z,1.00
2022-07-28T13:34:24.966Z,0.80
2022-07-28T13:39:42.696Z,0.77
2022-07-28T13:42:11.890Z,0.70
2022-07-28T13:44:42.691Z,0.90
2022-07-28T13:47:17.653Z,1.42
2022-07-28T13:49:47.367Z,0.90
2022-07-28T13:52:32.692Z,0.75
2022-07-28T13:55:06.319Z,0.90
2022-07-28T13:58:10.042Z,1.30
2022-07-28T14:00:52.866Z,0.80
2022-07-28T14:03:22.739Z,1.10
2022-07-28T14:06:31.586Z,0.80
2022-07-28T14:09:21.741Z,0.90
2022-07-28T14:12:13.073Z,1.15
2022-07-28T14:14:47.882Z,0.90
2022-07-28T14:17:43.306Z,0.60
2022-07-28T14:20:16.024Z,0.98
2022-07-28T14:22:46.665Z,1.02
2022-07-28T14:25:22.738Z,0.70
2022-07-28T14:28:05.016Z,0.70
2022-07-28T14:30:37.274Z,1.15
2022-07-28T14:33:08.811Z,0.85
2022-07-28T14:35:37.806Z,1.38
2022-07-28T14:41:26.739Z,1.48
2022-07-28T14:43:58.082Z,1.00
2022-07-28T14:46:29.873Z,1.20
2022-07-28T14:49:05.981Z,1.50
2022-07-28T14:51:40.455Z,0.88
2022-07-28T14:54:18.818Z,0.98
2022-07-28T14:57:01.058Z,1.08
2022-07-28T14:59:36.407Z,1.92
2022-07-28T15:02:04.828Z,0.80
2022-07-28T15:04:36.686Z,1.60
2022-07-28T15:07:05.367Z,0.80
2022-07-28T15:09:41.917Z,0.77
2022-07-28T15:12:20.526Z,0.77
2022-07-28T15:14:51.156Z,0.65
2022-07-28T15:22:53.132Z,1.35
2022-07-28T15:25:28.583Z,0.90
2022-07-28T15:28:06.391Z,0.80
2022-07-28T15:30:49.627Z,0.60
2022-07-28T15:33:48.462Z,0.82
2022-07-28T15:36:33.734Z,0.90
2022-07-28T15:39:02.455Z,0.90
2022-07-28T15:41:35.408Z,0.80
2022-07-28T15:44:09.288Z,1.48
2022-07-28T15:46:37.784Z,1.40
2022-07-28T15:49:10.314Z,0.90
2022-07-28T15:51:40.777Z,1.70
2022-07-28T15:54:25.119Z,2.50
2022-07-28T15:57:04.034Z,1.60
2022-07-28T15:59:50.084Z,2.10
2022-07-28T16:02:41.875Z,6.72
2022-07-28T16:05:23.658Z,2.80
2022-07-28T16:08:00.837Z,1.67
2022-07-28T16:10:35.061Z,4.57
2022-07-28T16:13:05.218Z,3.40
2022-07-28T16:15:54.142Z,8.63
2022-07-28T16:18:39.150Z,2.50
2022-07-28T16:21:10.649Z,6.50
2022-07-28T16:23:54.390Z,2.30
2022-07-28T16:29:05.329Z,2.20
2022-07-28T16:31:45.427Z,1.30
2022-07-28T16:34:22.890Z,2.13
2022-07-28T16:37:19.353Z,2.47
2022-07-28T16:39:52.550Z,1.52
2022-07-28T16:42:24.913Z,3.10
2022-07-28T16:51:39.238Z,2.55
2022-07-28T16:54:18.943Z,3.60
2022-07-28T16:56:52.133Z,1.95
2022-07-28T16:59:22.686Z,3.17
2022-07-28T17:01:53.229Z,1.63
2022-07-28T17:04:27.304Z,3.78
2022-07-28T17:07:03.631Z,4.13
2022-07-28T17:09:34.846Z,5.05
2022-07-28T17:12:11.752Z,7.30
2022-07-28T17:15:22.064Z,5.88
2022-07-28T17:18:15.020Z,7.72
2022-07-28T17:23:54.710Z,1.60
2022-07-28T17:29:25.309Z,3.85
2022-07-28T17:32:00.664Z,2.50
2022-07-28T17:37:24.799Z,4.40
2022-07-28T17:39:56.719Z,5.63
2022-07-28T17:42:30.625Z,2.08
2022-07-28T17:45:11.963Z,3.50
2022-07-28T17:47:47.924Z,3.63
2022-07-28T17:53:20.347Z,1.63
2022-07-28T17:56:13.247Z,13.82
2022-07-28T17:58:52.844Z,2.28
2022-07-28T18:01:39.954Z,1.80
2022-07-28T18:04:13.522Z,1.55
2022-07-28T18:06:47.675Z,2.60
2022-07-28T18:09:19.513Z,2.50
2022-07-28T18:11:57.769Z,3.65
2022-07-28T18:14:30.671Z,3.22
2022-07-28T18:17:06.113Z,2.13
2022-07-28T18:19:35.633Z,3.30
2022-07-28T18:22:09.849Z,2.10
2022-07-28T18:24:42.698Z,2.53
2022-07-28T18:27:15.941Z,2.10
2022-07-28T18:29:47.048Z,4.28
2022-07-28T18:32:22.511Z,2.63
2022-07-28T18:35:21.119Z,1.83
2022-07-28T18:37:52.006Z,2.08
2022-07-28T18:40:43.031Z,2.10
2022-07-28T18:43:30.817Z,1.60
2022-07-28T18:46:01.027Z,2.42
2022-07-28T18:51:52.930Z,2.00
2022-07-28T18:54:30.764Z,2.03
2022-07-28T18:57:01.303Z,2.40
2022-07-28T18:59:52.056Z,2.10
2022-07-28T19:02:26.428Z,2.13
2022-07-28T19:05:03.309Z,1.70
2022-07-28T19:07:37.233Z,1.92
2022-07-28T19:10:10.008Z,1.25
2022-07-28T19:13:04.508Z,5.22
2022-07-28T19:15:33.889Z,6.75
2022-07-28T19:21:08.630Z,2.72
2022-07-28T19:23:47.205Z,1.65
2022-07-28T19:26:24.740Z,3.33
2022-07-28T19:31:51.686Z,5.57
2022-07-28T19:34:28.960Z,8.32
2022-07-28T19:37:05.016Z,1.75
2022-07-28T19:39:52.714Z,3.42
2022-07-28T19:49:12.558Z,2.22
2022-07-28T19:52:16.852Z,1.88
2022-07-28T19:58:00.355Z,3.92
2022-07-28T20:01:21.394Z,3.30
2022-07-28T20:04:00.784Z,2.35
2022-07-28T20:06:38.506Z,1.70
2022-07-28T20:09:17.309Z,2.25
2022-07-28T20:14:52.530Z,2.83
2022-07-28T20:17:39.717Z,1.95
2022-07-28T20:20:23.290Z,1.95
2022-07-28T20:32:13.659Z,1.73
2022-07-28T20:34:55.549Z,1.40
2022-07-28T20:37:40.563Z,1.75
2022-07-28T20:40:27.015Z,2.25
2022-07-28T20:43:37.166Z,1.50
2022-07-28T20:49:17.054Z,1.65
2022-07-28T20:52:10.445Z,2.30
2022-07-28T20:54:42.362Z,2.72
2022-07-28T20:57:29.132Z,1.48
2022-07-28T21:03:19.513Z,1.90
2022-07-28T21:09:05.394Z,1.45
2022-07-28T21:11:40.378Z,1.25
2022-07-28T21:14:14.361Z,1.83
2022-07-28T21:16:49.482Z,1.98
2022-07-28T21:19:21.186Z,1.85
2022-07-28T21:21:52.438Z,1.73
2022-07-28T21:24:33.677Z,2.30
2022-07-28T21:27:18.824Z,3.30
2022-07-28T21:32:43.119Z,1.73
2022-07-28T21:35:23.100Z,1.45
2022-07-28T21:37:52.934Z,1.50
2022-07-28T21:43:20.128Z,1.33
2022-07-28T21:49:01.940Z,1.40
2022-07-28T21:51:48.694Z,1.40
2022-07-28T22:00:45.082Z,1.15
2022-07-28T22:06:27.194Z,1.33
2022-07-28T22:09:05.886Z,1.40
2022-07-28T22:14:40.192Z,1.50
2022-07-28T22:17:21.900Z,1.45
2022-07-28T22:23:28.629Z,1.38
2022-07-28T22:26:04.420Z,1.30
2022-07-28T22:28:35.707Z,1.75
2022-07-28T22:35:19.747Z,1.60
2022-07-28T22:39:03.113Z,1.67
2022-07-28T22:41:45.774Z,1.50
2022-07-28T22:44:29.107Z,1.52
2022-07-28T22:50:38.643Z,1.40
2022-07-28T22:53:16.367Z,1.55
2022-07-28T22:59:02.020Z,1.55
2022-07-28T23:01:32.449Z,1.50
2022-07-28T23:04:28.344Z,1.40
2022-07-28T23:07:50.813Z,1.50
2022-07-28T23:10:23.419Z,1.70
2022-07-28T23:12:57.265Z,1.55
2022-07-28T23:15:40.322Z,1.73
2022-07-28T23:18:27.677Z,1.45
2022-07-28T23:20:56.966Z,2.00
2022-07-28T23:23:28.514Z,2.17
2022-07-28T23:26:01.612Z,2.05
2022-07-28T23:28:31.449Z,1.80
2022-07-28T23:31:01.253Z,1.80
2022-07-28T23:33:55.611Z,2.47
2022-07-28T23:36:26.333Z,2.13
2022-07-28T23:38:57.834Z,2.10
2022-07-28T23:41:34.615Z,2.30
2022-07-28T23:44:06.255Z,2.10
2022-07-28T23:46:40.122Z,2.00
2022-07-28T23:49:10.957Z,2.28
2022-07-28T23:51:47.599Z,2.55
2022-07-28T23:54:41.989Z,2.25
2022-07-28T23:57:11.059Z,2.40
2022-07-28T23:59:40.442Z,2.20
